Time;durP1;ratioP1;P1;durP2;ratioP2;P2;SDS_P1;SDS_P2;PMS_P1;PMS_P2;Temp;Humidity;BMP_temperature;BMP_pressure;BME280_temperature;BME280_humidity;BME280_pressure;Samples;Min_cycle;Max_cycle;Signal;HPM_P1;HPM_P2
2021/06/01 00:01:34;;;;;;;10.23;7.57;;;;;;;;;;4975074;28;20054;-58
2021/06/01 00:04:15;;;;;;;14.20;7.10;;;;;;;;;;4974874;28;20030;-58
2021/06/01 00:06:42;;;;;;;11.13;7.60;;;;;;;;;;4974940;28;20066;-58
2021/06/01 00:09:10;;;;;;;14.73;7.80;;;;;;;;;;4975013;28;20027;-58
2021/06/01 00:11:37;;;;;;;10.23;7.50;;;;;;;;;;4975026;28;20401;-58
2021/06/01 00:14:05;;;;;;;12.40;7.63;;;;;;;;;;4974939;28;20542;-59
2021/06/01 00:16:32;;;;;;;12.27;7.20;;;;;;;;;;4974928;28;20038;-58
2021/06/01 00:18:59;;;;;;;10.47;7.23;;;;;;;;;;4974975;28;20418;-59
2021/06/01 00:21:26;;;;;;;14.23;8.10;;;;;;;;;;4957616;28;20051;-57
2021/06/01 00:23:54;;;;;;;10.17;6.80;;;;;;;;;;4974754;28;20042;-58
2021/06/01 00:26:23;;;;;;;9.77;6.73;;;;;;;;;;4989770;28;20413;-57
2021/06/01 00:28:51;;;;;;;11.43;7.07;;;;;;;;;;4994091;28;20117;-57
2021/06/01 00:31:18;;;;;;;10.90;6.93;;;;;;;;;;4994267;28;20054;-57
2021/06/01 00:33:45;;;;;;;9.27;6.63;;;;;;;;;;4993574;28;20390;-58
2021/06/01 00:36:12;;;;;;;8.77;6.67;;;;;;;;;;4994081;28;20105;-58
2021/06/01 00:38:39;;;;;;;9.10;6.50;;;;;;;;;;4993932;28;20037;-57
2021/06/01 00:41:05;;;;;;;10.20;7.17;;;;;;;;;;4994019;28;20034;-58
2021/06/01 00:43:35;;;;;;;12.73;7.77;;;;;;;;;;4993867;28;20038;-58
2021/06/01 00:46:04;;;;;;;8.70;6.47;;;;;;;;;;4993756;28;20046;-57
2021/06/01 00:48:31;;;;;;;10.00;6.97;;;;;;;;;;4993615;28;20030;-58
2021/06/01 00:50:59;;;;;;;10.20;6.83;;;;;;;;;;4994025;28;20030;-57
2021/06/01 00:53:25;;;;;;;9.60;6.63;;;;;;;;;;4993784;28;20037;-57
2021/06/01 00:55:53;;;;;;;9.90;6.33;;;;;;;;;;4993678;28;20056;-57
2021/06/01 00:58:19;;;;;;;13.10;7.23;;;;;;;;;;4993626;28;20106;-57
2021/06/01 01:03:22;;;;;;;10.57;6.80;;;;;;;;;;4993689;28;20033;-57
2021/06/01 01:05:51;;;;;;;8.90;6.60;;;;;;;;;;4993542;28;20437;-58
2021/06/01 01:11:13;;;;;;;8.33;6.37;;;;;;;;;;4970376;28;20551;-57
2021/06/01 01:14:00;;;;;;;16.53;7.17;;;;;;;;;;4993310;28;20030;-57
2021/06/01 01:16:29;;;;;;;13.07;8.37;;;;;;;;;;4993396;28;20230;-58
2021/06/01 01:19:16;;;;;;;14.07;8.90;;;;;;;;;;4993452;28;20022;-58
2021/06/01 01:21:49;;;;;;;14.40;8.47;;;;;;;;;;4993318;28;20057;-59
2021/06/01 01:24:22;;;;;;;15.00;8.23;;;;;;;;;;4993285;28;20426;-57
2021/06/01 01:26:56;;;;;;;15.17;7.63;;;;;;;;;;4980363;28;20059;-56
2021/06/01 01:29:46;;;;;;;19.50;6.88;;;;;;;;;;4973760;28;20054;-57
2021/06/01 01:32:40;;;;;;;19.50;9.07;;;;;;;;;;4971091;28;20039;-57
2021/06/01 01:35:12;;;;;;;17.43;8.33;;;;;;;;;;4961545;28;20035;-57
2021/06/01 01:37:40;;;;;;;14.50;7.90;;;;;;;;;;4973619;28;20031;-57
2021/06/01 01:40:12;;;;;;;30.13;8.80;;;;;;;;;;4973852;28;20074;-58
2021/06/01 01:42:52;;;;;;;12.67;7.63;;;;;;;;;;4972804;28;20085;-58
2021/06/01 01:45:35;;;;;;;9.93;6.57;;;;;;;;;;4973817;28;20078;-57
2021/06/01 01:51:16;;;;;;;14.93;6.30;;;;;;;;;;4978075;28;20090;-57
2021/06/01 01:53:46;;;;;;;9.50;6.37;;;;;;;;;;4976650;28;20401;-58
2021/06/01 01:56:16;;;;;;;8.32;6.35;;;;;;;;;;4977372;28;20098;-58
2021/06/01 01:58:43;;;;;;;10.27;6.67;;;;;;;;;;4977512;28;20019;-59
2021/06/01 02:01:10;;;;;;;9.57;6.27;;;;;;;;;;4977542;28;20022;-58
2021/06/01 02:03:40;;;;;;;8.47;6.20;;;;;;;;;;4977322;28;20038;-59
2021/06/01 02:06:06;;;;;;;9.23;5.63;;;;;;;;;;4977391;28;20035;-58
2021/06/01 02:08:47;;;;;;;9.93;6.33;;;;;;;;;;4977225;28;20454;-58
2021/06/01 02:11:17;;;;;;;13.13;6.67;;;;;;;;;;4977390;28;20030;-58
2021/06/01 02:13:45;;;;;;;9.73;6.73;;;;;;;;;;4977281;28;20034;-58
2021/06/01 02:16:12;;;;;;;9.87;6.23;;;;;;;;;;4977230;28;20154;-58
2021/06/01 02:18:39;;;;;;;8.00;6.70;;;;;;;;;;4977074;28;20123;-58
2021/06/01 02:21:17;;;;;;;9.00;6.27;;;;;;;;;;4977200;28;20031;-58
2021/06/01 02:23:48;;;;;;;10.83;6.70;;;;;;;;;;4977288;28;20067;-59
2021/06/01 02:26:23;;;;;;;12.50;6.73;;;;;;;;;;4979667;28;20588;-58
2021/06/01 02:28:54;;;;;;;11.52;6.45;;;;;;;;;;4977024;28;20023;-58
2021/06/01 02:31:33;;;;;;;8.73;5.80;;;;;;;;;;4976905;28;20105;-58
2021/06/01 02:34:01;;;;;;;10.53;6.30;;;;;;;;;;4976931;28;20026;-58
2021/06/01 02:36:36;;;;;;;13.57;7.80;;;;;;;;;;4976757;28;20398;-58
2021/06/01 02:39:04;;;;;;;10.00;7.60;;;;;;;;;;4976597;28;20030;-58
2021/06/01 02:41:31;;;;;;;13.83;8.13;;;;;;;;;;4976646;28;20035;-58
2021/06/01 02:43:57;;;;;;;12.03;7.33;;;;;;;;;;4976500;28;20022;-58
2021/06/01 02:46:24;;;;;;;11.10;6.73;;;;;;;;;;4976661;28;20034;-58
2021/06/01 02:48:52;;;;;;;10.90;6.37;;;;;;;;;;4976474;28;20423;-58
2021/06/01 02:51:20;;;;;;;10.90;6.87;;;;;;;;;;4976514;28;20049;-58
2021/06/01 02:53:51;;;;;;;10.00;7.27;;;;;;;;;;4976519;28;20382;-58
2021/06/01 02:56:18;;;;;;;12.73;7.20;;;;;;;;;;4976215;28;20023;-58
2021/06/01 02:58:46;;;;;;;16.87;8.47;;;;;;;;;;4976263;28;20023;-58
2021/06/01 03:01:16;;;;;;;12.63;8.27;;;;;;;;;;4976275;28;20061;-58
2021/06/01 03:03:47;;;;;;;12.37;7.43;;;;;;;;;;4976281;28;20034;-58
2021/06/01 03:06:15;;;;;;;12.90;6.73;;;;;;;;;;4976334;28;20043;-58
2021/06/01 03:08:41;;;;;;;15.67;7.20;;;;;;;;;;4976252;28;20074;-58
2021/06/01 03:11:09;;;;;;;13.50;8.20;;;;;;;;;;4976165;28;20131;-58
2021/06/01 03:13:36;;;;;;;13.33;7.67;;;;;;;;;;4976295;28;20023;-58
2021/06/01 03:16:03;;;;;;;17.27;7.87;;;;;;;;;;4976303;28;20034;-58
2021/06/01 03:18:30;;;;;;;21.70;7.63;;;;;;;;;;4976184;28;20535;-58
2021/06/01 03:20:57;;;;;;;16.07;8.20;;;;;;;;;;4976058;28;20038;-58
2021/06/01 03:23:24;;;;;;;10.20;6.43;;;;;;;;;;4975984;28;20133;-58
2021/06/01 03:25:51;;;;;;;10.90;7.17;;;;;;;;;;4983692;28;20054;-58
2021/06/01 03:28:32;;;;;;;12.70;7.90;;;;;;;;;;4995268;28;20029;-58
2021/06/01 03:30:59;;;;;;;15.03;7.90;;;;;;;;;;4995205;28;20097;-58
2021/06/01 03:33:28;;;;;;;14.80;8.93;;;;;;;;;;4995293;28;20029;-58
2021/06/01 03:35:55;;;;;;;11.80;8.47;;;;;;;;;;4995160;28;20359;-58
2021/06/01 03:38:21;;;;;;;13.67;7.67;;;;;;;;;;4994969;28;20374;-58
2021/06/01 03:40:48;;;;;;;16.07;8.03;;;;;;;;;;4995029;28;20023;-58
2021/06/01 03:43:15;;;;;;;14.90;7.17;;;;;;;;;;4995052;28;20022;-58
2021/06/01 03:45:42;;;;;;;13.00;7.60;;;;;;;;;;4995016;28;20060;-58
2021/06/01 03:48:09;;;;;;;13.53;7.03;;;;;;;;;;4977527;28;20473;-58
2021/06/01 03:50:35;;;;;;;12.27;7.90;;;;;;;;;;4995059;28;20026;-58
2021/06/01 03:53:03;;;;;;;10.63;7.33;;;;;;;;;;4994827;28;20489;-58
2021/06/01 03:55:30;;;;;;;11.17;8.00;;;;;;;;;;4994791;28;20031;-58
2021/06/01 03:57:57;;;;;;;11.07;7.77;;;;;;;;;;4994735;28;20026;-58
2021/06/01 04:00:25;;;;;;;11.77;8.03;;;;;;;;;;4994565;28;20105;-58
2021/06/01 04:02:52;;;;;;;14.03;7.60;;;;;;;;;;4994528;28;20377;-58
2021/06/01 04:05:18;;;;;;;12.53;7.60;;;;;;;;;;4994441;28;20043;-58
2021/06/01 04:07:46;;;;;;;12.40;7.10;;;;;;;;;;4994419;28;20474;-58
2021/06/01 04:10:14;;;;;;;13.20;7.67;;;;;;;;;;4993805;28;20019;-58
2021/06/01 04:12:41;;;;;;;14.57;7.97;;;;;;;;;;4994453;28;20018;-58
2021/06/01 04:15:08;;;;;;;13.60;7.50;;;;;;;;;;4994454;28;20026;-58
2021/06/01 04:17:35;;;;;;;11.47;7.20;;;;;;;;;;4994294;28;20026;-58
2021/06/01 04:20:02;;;;;;;15.80;8.20;;;;;;;;;;4994362;28;20425;-58
2021/06/01 04:22:29;;;;;;;10.87;7.00;;;;;;;;;;4994317;28;20074;-58
2021/06/01 04:24:56;;;;;;;10.23;6.97;;;;;;;;;;4994091;28;20044;-58
2021/06/01 04:27:23;;;;;;;16.83;8.30;;;;;;;;;;4979224;28;20042;-58
2021/06/01 04:29:49;;;;;;;9.40;6.23;;;;;;;;;;4974668;28;20034;-58
2021/06/01 04:32:16;;;;;;;13.97;7.13;;;;;;;;;;4974882;28;20473;-58
2021/06/01 04:34:44;;;;;;;14.10;7.13;;;;;;;;;;4974389;28;20414;-58
2021/06/01 04:37:11;;;;;;;15.77;7.63;;;;;;;;;;4974742;28;20045;-58
2021/06/01 04:39:37;;;;;;;14.63;7.30;;;;;;;;;;4974339;28;20379;-58
2021/06/01 04:42:04;;;;;;;13.37;7.70;;;;;;;;;;4974357;28;20053;-58
2021/06/01 04:44:31;;;;;;;14.33;7.90;;;;;;;;;;4974193;28;20382;-58
2021/06/01 04:46:58;;;;;;;18.00;9.23;;;;;;;;;;4974221;28;20034;-58
2021/06/01 04:49:25;;;;;;;18.50;8.10;;;;;;;;;;4974291;28;20022;-58
2021/06/01 04:51:51;;;;;;;12.50;7.43;;;;;;;;;;4974252;28;20038;-58
2021/06/01 04:54:18;;;;;;;12.37;7.00;;;;;;;;;;4974196;28;20027;-58
2021/06/01 04:56:45;;;;;;;14.27;8.47;;;;;;;;;;4974198;28;20058;-58
2021/06/01 04:59:12;;;;;;;13.40;7.73;;;;;;;;;;4974073;28;20117;-58
2021/06/01 05:01:39;;;;;;;9.80;6.90;;;;;;;;;;4974069;28;20478;-58
2021/06/01 05:04:05;;;;;;;10.80;7.07;;;;;;;;;;4973903;28;20360;-58
2021/06/01 05:06:33;;;;;;;12.00;7.87;;;;;;;;;;4974191;28;20027;-58
2021/06/01 05:09:00;;;;;;;14.80;8.27;;;;;;;;;;4974200;28;20031;-58
2021/06/01 05:11:27;;;;;;;14.80;9.20;;;;;;;;;;4974149;28;20027;-58
2021/06/01 05:13:54;;;;;;;13.73;9.17;;;;;;;;;;4974170;28;20075;-58
2021/06/01 05:16:21;;;;;;;13.93;8.20;;;;;;;;;;4973952;28;20027;-58
2021/06/01 05:18:49;;;;;;;20.87;8.77;;;;;;;;;;4974032;28;20385;-58
2021/06/01 05:21:16;;;;;;;20.77;9.70;;;;;;;;;;4973822;28;20031;-58
2021/06/01 05:23:43;;;;;;;12.17;9.27;;;;;;;;;;4974134;28;20106;-59
2021/06/01 05:26:09;;;;;;;12.10;8.37;;;;;;;;;;4976429;28;20118;-58
2021/06/01 05:28:37;;;;;;;15.83;8.67;;;;;;;;;;4974043;28;20602;-58
2021/06/01 05:31:18;;;;;;;11.63;7.80;;;;;;;;;;4973980;28;20102;-58
2021/06/01 05:33:57;;;;;;;14.83;8.37;;;;;;;;;;4973892;28;20035;-58
2021/06/01 05:36:25;;;;;;;13.17;7.83;;;;;;;;;;4973972;28;20027;-58
2021/06/01 05:38:51;;;;;;;13.43;8.50;;;;;;;;;;4973751;28;20377;-58
2021/06/01 05:41:18;;;;;;;12.53;7.97;;;;;;;;;;4973922;28;20053;-58
2021/06/01 05:43:45;;;;;;;12.27;8.30;;;;;;;;;;4973810;28;20023;-58
2021/06/01 05:46:12;;;;;;;12.73;9.17;;;;;;;;;;4973657;28;20126;-58
2021/06/01 05:48:39;;;;;;;13.63;8.93;;;;;;;;;;4973818;28;20026;-58
2021/06/01 05:51:06;;;;;;;12.63;7.07;;;;;;;;;;4973699;28;20050;-58
2021/06/01 05:53:32;;;;;;;15.20;8.53;;;;;;;;;;4973701;28;20022;-58
2021/06/01 05:55:59;;;;;;;12.00;7.37;;;;;;;;;;4973842;28;20132;-58
2021/06/01 05:58:26;;;;;;;14.50;8.70;;;;;;;;;;4973633;28;20019;-58
2021/06/01 06:00:53;;;;;;;10.97;7.47;;;;;;;;;;4973657;28;20030;-58
2021/06/01 06:03:20;;;;;;;9.63;7.53;;;;;;;;;;4973595;28;20023;-58
2021/06/01 06:05:48;;;;;;;9.67;7.07;;;;;;;;;;4973631;28;20035;-58
2021/06/01 06:08:16;;;;;;;11.93;7.90;;;;;;;;;;4973583;28;20019;-58
2021/06/01 06:10:44;;;;;;;14.57;8.40;;;;;;;;;;4973666;28;20482;-58
2021/06/01 06:13:11;;;;;;;11.77;7.77;;;;;;;;;;4973537;28;20030;-58
2021/06/01 06:15:38;;;;;;;15.33;7.67;;;;;;;;;;4973415;28;20549;-58
2021/06/01 06:18:28;;;;;;;15.17;7.97;;;;;;;;;;4973511;28;20022;-58
2021/06/01 06:21:02;;;;;;;18.23;8.70;;;;;;;;;;4961620;28;20062;-57
2021/06/01 06:23:31;;;;;;;10.00;7.22;;;;;;;;;;4973423;28;20058;-58
2021/06/01 06:25:58;;;;;;;13.63;8.07;;;;;;;;;;4975911;28;20055;-58
2021/06/01 06:28:25;;;;;;;12.83;8.83;;;;;;;;;;4973749;28;20079;-58
2021/06/01 06:30:52;;;;;;;10.67;7.63;;;;;;;;;;4973513;28;20026;-58
2021/06/01 06:33:18;;;;;;;16.37;9.13;;;;;;;;;;4976139;28;20046;-58
2021/06/01 06:35:45;;;;;;;13.17;8.13;;;;;;;;;;4976978;28;20033;-58
2021/06/01 06:38:12;;;;;;;11.90;9.00;;;;;;;;;;4976733;28;20034;-57
2021/06/01 06:40:39;;;;;;;12.30;9.40;;;;;;;;;;4976774;28;20031;-58
2021/06/01 06:43:06;;;;;;;13.53;9.60;;;;;;;;;;4976827;28;20720;-58
2021/06/01 06:45:33;;;;;;;15.87;9.67;;;;;;;;;;4976611;28;20114;-58
2021/06/01 06:48:06;;;;;;;14.80;8.97;;;;;;;;;;4976559;28;20027;-58
2021/06/01 06:50:34;;;;;;;10.77;7.90;;;;;;;;;;4976589;28;20037;-57
2021/06/01 06:53:02;;;;;;;11.63;8.60;;;;;;;;;;4976640;28;20489;-57
2021/06/01 06:55:29;;;;;;;10.60;8.47;;;;;;;;;;4976592;28;20031;-58
2021/06/01 06:57:56;;;;;;;12.03;7.97;;;;;;;;;;4976398;28;20019;-57
2021/06/01 07:00:26;;;;;;;17.70;9.80;;;;;;;;;;4976380;28;20033;-58
2021/06/01 07:02:53;;;;;;;13.90;9.13;;;;;;;;;;4976487;28;20109;-57
2021/06/01 07:05:21;;;;;;;15.07;8.93;;;;;;;;;;4976364;28;20245;-58
2021/06/01 07:07:51;;;;;;;14.67;8.03;;;;;;;;;;4976442;28;20098;-58
2021/06/01 07:10:18;;;;;;;10.37;7.70;;;;;;;;;;4976416;28;20023;-57
2021/06/01 07:12:45;;;;;;;13.80;7.80;;;;;;;;;;4976228;28;20091;-57
2021/06/01 07:15:31;;;;;;;13.03;8.87;;;;;;;;;;4976027;28;20027;-58
2021/06/01 07:18:00;;;;;;;14.87;8.37;;;;;;;;;;4976203;28;20462;-57
2021/06/01 07:20:31;;;;;;;14.93;9.33;;;;;;;;;;4976008;28;20037;-58
2021/06/01 07:22:58;;;;;;;13.20;8.90;;;;;;;;;;4975936;28;20078;-57
2021/06/01 07:25:25;;;;;;;13.13;8.23;;;;;;;;;;4975914;28;20041;-58
2021/06/01 07:27:52;;;;;;;14.90;9.40;;;;;;;;;;4978637;28;20058;-58
2021/06/01 07:30:19;;;;;;;15.37;8.87;;;;;;;;;;4975923;28;20085;-58
2021/06/01 07:32:46;;;;;;;14.53;9.30;;;;;;;;;;4975988;28;20053;-57
2021/06/01 07:35:13;;;;;;;13.20;8.83;;;;;;;;;;4975720;28;20039;-57
2021/06/01 07:37:40;;;;;;;12.13;8.50;;;;;;;;;;4975923;28;20374;-57
2021/06/01 07:40:07;;;;;;;16.37;8.20;;;;;;;;;;4975736;28;20090;-57
2021/06/01 07:42:34;;;;;;;11.37;8.10;;;;;;;;;;4975619;28;20113;-58
2021/06/01 07:45:01;;;;;;;12.47;8.20;;;;;;;;;;4975484;28;20050;-58
2021/06/01 07:47:28;;;;;;;11.83;7.97;;;;;;;;;;4975682;28;20027;-57
2021/06/01 07:49:55;;;;;;;12.47;8.03;;;;;;;;;;4975511;28;20498;-58
2021/06/01 07:52:22;;;;;;;11.43;8.40;;;;;;;;;;4975518;28;20359;-58
2021/06/01 07:54:49;;;;;;;14.47;8.87;;;;;;;;;;4975419;28;20031;-57
2021/06/01 07:57:16;;;;;;;19.53;9.17;;;;;;;;;;4975262;28;20485;-57
2021/06/01 07:59:43;;;;;;;11.03;7.63;;;;;;;;;;4975318;28;20015;-57
2021/06/01 08:02:10;;;;;;;14.07;9.50;;;;;;;;;;4975393;28;20482;-57
2021/06/01 08:04:37;;;;;;;15.40;8.87;;;;;;;;;;4975183;28;20498;-57
2021/06/01 08:07:08;;;;;;;12.03;7.93;;;;;;;;;;4975136;28;20389;-57
2021/06/01 08:09:35;;;;;;;10.93;7.90;;;;;;;;;;4957890;28;20030;-57
2021/06/01 08:12:05;;;;;;;12.13;8.23;;;;;;;;;;4975190;28;20110;-58
2021/06/01 08:14:32;;;;;;;11.07;8.13;;;;;;;;;;4974974;28;20058;-57
2021/06/01 08:16:59;;;;;;;9.53;6.63;;;;;;;;;;4975085;28;20114;-57
2021/06/01 08:19:30;;;;;;;12.87;7.93;;;;;;;;;;4974949;28;20031;-58
2021/06/01 08:24:24;;;;;;;15.10;8.00;;;;;;;;;;4974877;28;20035;-57
2021/06/01 08:26:50;;;;;;;14.87;8.70;;;;;;;;;;4986019;28;20062;-57
2021/06/01 08:29:17;;;;;;;15.47;9.20;;;;;;;;;;4994223;28;20030;-58
2021/06/01 08:31:45;;;;;;;13.93;8.80;;;;;;;;;;4994176;28;20034;-57
2021/06/01 08:34:12;;;;;;;12.33;8.10;;;;;;;;;;4994101;28;20026;-58
2021/06/01 08:36:39;;;;;;;11.47;7.37;;;;;;;;;;4994093;28;20038;-57
2021/06/01 08:39:07;;;;;;;17.57;8.40;;;;;;;;;;4994077;28;20109;-57
2021/06/01 08:41:34;;;;;;;11.23;7.97;;;;;;;;;;4993912;28;20041;-57
2021/06/01 08:44:03;;;;;;;14.13;8.37;;;;;;;;;;4993828;28;20034;-57
2021/06/01 08:46:30;;;;;;;11.50;7.83;;;;;;;;;;4994028;28;20039;-57
2021/06/01 08:48:57;;;;;;;10.63;7.93;;;;;;;;;;4993864;28;20053;-57
2021/06/01 08:51:24;;;;;;;12.93;9.03;;;;;;;;;;4993829;28;20433;-57
2021/06/01 08:53:52;;;;;;;13.73;8.93;;;;;;;;;;4993926;28;20110;-57
2021/06/01 08:56:19;;;;;;;10.90;7.90;;;;;;;;;;4993364;28;20024;-57
2021/06/01 08:58:49;;;;;;;14.87;8.37;;;;;;;;;;4993790;28;20058;-58
2021/06/01 09:01:18;;;;;;;12.77;8.00;;;;;;;;;;4993874;28;20074;-57
2021/06/01 09:03:48;;;;;;;9.67;7.33;;;;;;;;;;4993692;28;20026;-57
2021/06/01 09:06:25;;;;;;;11.50;8.23;;;;;;;;;;4993588;28;20041;-57
2021/06/01 09:12:23;;;;;;;10.53;7.67;;;;;;;;;;4981694;28;20054;-57
2021/06/01 09:15:21;;;;;;;11.97;7.27;;;;;;;;;;4993401;28;20520;-57
2021/06/01 09:23:10;;;;;;;13.03;8.70;;;;;;;;;;4993550;28;20064;-57
2021/06/01 09:25:43;;;;;;;14.73;8.53;;;;;;;;;;4993337;28;20440;-57
2021/06/01 09:28:17;;;;;;;13.27;9.03;;;;;;;;;;4998788;28;20142;-57
2021/06/01 09:30:48;;;;;;;13.43;8.33;;;;;;;;;;4993251;28;20027;-57
2021/06/01 09:33:18;;;;;;;10.77;6.93;;;;;;;;;;4993392;28;20019;-57
2021/06/01 09:35:58;;;;;;;15.13;9.10;;;;;;;;;;4993347;28;20105;-57
2021/06/01 09:38:28;;;;;;;12.93;7.23;;;;;;;;;;4993366;28;20019;-57
2021/06/01 09:41:05;;;;;;;12.53;7.70;;;;;;;;;;4993548;28;20050;-57
2021/06/01 09:43:33;;;;;;;11.73;7.73;;;;;;;;;;4993323;28;20023;-57
2021/06/01 09:46:18;;;;;;;11.73;7.97;;;;;;;;;;4993133;28;20068;-57
2021/06/01 09:48:45;;;;;;;10.63;7.17;;;;;;;;;;4993210;28;20038;-57
2021/06/01 09:51:16;;;;;;;13.77;7.93;;;;;;;;;;4993174;28;20031;-57
2021/06/01 09:53:43;;;;;;;11.50;7.67;;;;;;;;;;4993031;28;20130;-57
2021/06/01 09:56:10;;;;;;;18.47;8.20;;;;;;;;;;4993159;28;20041;-57
2021/06/01 09:58:37;;;;;;;10.50;7.20;;;;;;;;;;4993195;28;20067;-57
2021/06/01 10:01:05;;;;;;;11.07;7.50;;;;;;;;;;4993102;28;20430;-57
2021/06/01 10:03:50;;;;;;;12.23;8.17;;;;;;;;;;4993130;28;20389;-57
2021/06/01 10:06:17;;;;;;;14.82;7.65;;;;;;;;;;4992884;28;20486;-57
2021/06/01 10:08:49;;;;;;;13.97;9.30;;;;;;;;;;4979270;28;20031;-57
2021/06/01 10:11:17;;;;;;;12.00;7.37;;;;;;;;;;4996856;28;20478;-57
2021/06/01 10:13:43;;;;;;;9.33;7.13;;;;;;;;;;4996920;28;20488;-57
2021/06/01 10:16:11;;;;;;;12.77;8.00;;;;;;;;;;4996625;28;20034;-57
2021/06/01 10:18:41;;;;;;;13.70;8.27;;;;;;;;;;4996613;28;20037;-57
2021/06/01 10:21:15;;;;;;;12.13;8.40;;;;;;;;;;4996628;28;20027;-57
2021/06/01 10:23:44;;;;;;;9.73;6.93;;;;;;;;;;4996703;28;20101;-57
2021/06/01 10:26:12;;;;;;;11.47;7.13;;;;;;;;;;4996366;28;20046;-57
2021/06/01 10:28:42;;;;;;;12.93;8.97;;;;;;;;;;4983096;28;20061;-57
2021/06/01 10:31:09;;;;;;;10.90;8.40;;;;;;;;;;4976867;28;20521;-57
2021/06/01 10:33:51;;;;;;;12.90;7.87;;;;;;;;;;4976911;28;20455;-57
2021/06/01 10:48:45;;;;;;;9.60;6.90;;;;;;;;;;4976792;28;20130;-57
2021/06/01 10:53:14;;;;;;;17.67;10.80;;;;;;;;;;4976700;28;20027;-57
2021/06/01 10:55:57;;;;;;;10.17;7.73;;;;;;;;;;4976405;28;20049;-57
2021/06/01 10:58:31;;;;;;;13.90;8.57;;;;;;;;;;4976687;28;20027;-57
2021/06/01 11:04:10;;;;;;;14.33;8.83;;;;;;;;;;4976551;28;20041;-57
2021/06/01 11:09:34;;;;;;;11.10;7.93;;;;;;;;;;4976396;28;20128;-57
2021/06/01 11:12:23;;;;;;;15.87;7.67;;;;;;;;;;4976226;28;20034;-57
2021/06/01 11:14:51;;;;;;;16.70;7.90;;;;;;;;;;4976170;28;20023;-57
2021/06/01 11:17:37;;;;;;;16.40;8.10;;;;;;;;;;4975927;28;20023;-57
2021/06/01 11:20:14;;;;;;;11.03;7.63;;;;;;;;;;4976091;28;20030;-57
2021/06/01 11:33:28;;;;;;;10.48;6.78;;;;;;;;;;4995938;28;20437;-57
2021/06/01 11:35:59;;;;;;;10.93;7.50;;;;;;;;;;4995737;28;20029;-57
2021/06/01 11:38:32;;;;;;;11.83;7.37;;;;;;;;;;4995051;28;20026;-57
2021/06/01 11:43:27;;;;;;;12.73;8.60;;;;;;;;;;4995052;28;20393;-57
2021/06/01 11:46:09;;;;;;;28.67;9.93;;;;;;;;;;4994876;28;20032;-57
2021/06/01 11:51:23;;;;;;;10.77;8.13;;;;;;;;;;4995024;28;20023;-57
2021/06/01 11:54:01;;;;;;;14.47;9.17;;;;;;;;;;4994938;28;20057;-57
2021/06/01 11:56:36;;;;;;;13.33;8.53;;;;;;;;;;4994849;28;20022;-57
2021/06/01 12:02:11;;;;;;;11.75;6.45;;;;;;;;;;4995127;28;20038;-57
2021/06/01 12:18:30;;;;;;;13.40;7.40;;;;;;;;;;4994774;28;20134;-57
2021/06/01 12:20:57;;;;;;;16.23;8.40;;;;;;;;;;4994453;28;20019;-58
2021/06/01 12:23:45;;;;;;;14.47;9.20;;;;;;;;;;4994384;28;20030;-58
2021/06/01 12:31:48;;;;;;;11.27;7.73;;;;;;;;;;4974733;28;20034;-58
2021/06/01 12:34:20;;;;;;;10.50;7.40;;;;;;;;;;4974756;28;20039;-58
2021/06/01 12:45:04;;;;;;;12.60;8.00;;;;;;;;;;4974514;28;20122;-58
2021/06/01 13:05:18;;;;;;;13.83;8.67;;;;;;;;;;4974397;28;20089;-58
2021/06/01 13:12:31;;;;;;;13.47;9.10;;;;;;;;;;4974245;28;20034;-57
2021/06/01 13:20:39;;;;;;;13.97;8.50;;;;;;;;;;4974403;28;20097;-58
2021/06/01 13:40:15;;;;;;;14.30;9.20;;;;;;;;;;4974237;28;20554;-58
2021/06/01 13:56:28;;;;;;;14.40;8.70;;;;;;;;;;4949718;28;20042;-58
2021/06/01 13:59:25;;;;;;;17.20;8.87;;;;;;;;;;4977538;28;20031;-58
2021/06/01 14:30:06;;;;;;;15.03;7.90;;;;;;;;;;4996365;28;20045;-58
2021/06/01 16:30:22;;;;;;;10.25;6.68;;;;;;;;;;4989804;28;20446;-58
2021/06/01 16:44:24;;;;;;;8.93;6.20;;;;;;;;;;4994076;28;20030;-59
2021/06/01 17:03:26;;;;;;;9.75;6.25;;;;;;;;;;4993953;28;20069;-59
2021/06/01 17:05:56;;;;;;;8.57;6.72;;;;;;;;;;4993568;28;20039;-59
2021/06/01 17:13:45;;;;;;;10.07;6.63;;;;;;;;;;4993583;28;20031;-58
2021/06/01 17:16:20;;;;;;;11.30;6.32;;;;;;;;;;4992901;28;20026;-58
2021/06/01 17:19:15;;;;;;;10.65;6.72;;;;;;;;;;4993566;28;20113;-58
2021/06/01 17:35:13;;;;;;;11.30;6.22;;;;;;;;;;4993690;28;20037;-58
2021/06/01 17:37:40;;;;;;;8.60;5.55;;;;;;;;;;4993209;28;20025;-59
2021/06/01 17:40:14;;;;;;;9.25;6.05;;;;;;;;;;4993653;28;20023;-59
2021/06/01 17:42:44;;;;;;;7.75;5.93;;;;;;;;;;4993276;28;20309;-59
2021/06/01 17:45:13;;;;;;;9.75;6.28;;;;;;;;;;4993156;28;20398;-59
2021/06/01 17:47:44;;;;;;;12.45;6.45;;;;;;;;;;4975798;28;20117;-59
2021/06/01 17:50:11;;;;;;;9.57;6.82;;;;;;;;;;4993169;28;20042;-59
2021/06/01 17:52:38;;;;;;;11.45;6.72;;;;;;;;;;4993115;28;20018;-59
2021/06/01 17:55:06;;;;;;;9.35;5.57;;;;;;;;;;4993264;28;20031;-59
2021/06/01 17:57:33;;;;;;;9.85;6.35;;;;;;;;;;4993447;28;20061;-59
2021/06/01 17:59:59;;;;;;;11.32;6.30;;;;;;;;;;4993235;28;20286;-59
2021/06/01 18:02:26;;;;;;;8.45;5.50;;;;;;;;;;4992888;28;20061;-59
2021/06/01 18:04:55;;;;;;;11.93;6.85;;;;;;;;;;4992808;28;20049;-59
2021/06/01 18:07:31;;;;;;;12.60;6.03;;;;;;;;;;4992956;28;20030;-59
2021/06/01 19:01:44;;;;;;;10.20;6.38;;;;;;;;;;4996277;28;20442;-59
2021/06/01 19:26:11;;;;;;;9.02;6.25;;;;;;;;;;4995622;28;20401;-60
2021/06/01 19:51:16;;;;;;;12.73;7.32;;;;;;;;;;4995412;28;20040;-58
2021/06/01 19:53:50;;;;;;;11.35;7.35;;;;;;;;;;4994816;28;20037;-59
2021/06/01 19:56:17;;;;;;;13.15;6.32;;;;;;;;;;4993989;28;20065;-60
2021/06/01 19:58:47;;;;;;;10.68;6.07;;;;;;;;;;4995000;28;20030;-59
2021/06/01 20:01:14;;;;;;;7.40;5.40;;;;;;;;;;4994841;28;20485;-58
2021/06/01 20:03:41;;;;;;;11.52;7.28;;;;;;;;;;4994955;28;20034;-59
2021/06/01 20:06:09;;;;;;;10.90;8.02;;;;;;;;;;4995025;28;20046;-59
2021/06/01 20:08:41;;;;;;;15.07;7.70;;;;;;;;;;4994577;28;20129;-60
2021/06/01 20:11:09;;;;;;;15.00;8.32;;;;;;;;;;4994762;28;20074;-59
2021/06/01 20:13:36;;;;;;;14.35;7.82;;;;;;;;;;4994610;28;20101;-58
2021/06/01 20:16:04;;;;;;;17.55;7.47;;;;;;;;;;4994388;28;20034;-59
2021/06/01 20:18:40;;;;;;;12.20;8.50;;;;;;;;;;4994645;28;20372;-59
2021/06/01 20:21:09;;;;;;;12.15;7.82;;;;;;;;;;4994586;28;20030;-60
2021/06/01 20:23:44;;;;;;;14.18;8.02;;;;;;;;;;4994410;28;20030;-59
2021/06/01 20:26:28;;;;;;;17.48;8.18;;;;;;;;;;4994305;28;20041;-58
2021/06/01 20:29:03;;;;;;;;;;;;;;;;;;4996500;28;20133;-59
2021/06/01 20:31:38;;;;;;;11.73;7.55;;;;;;;;;;4994350;28;19906;-58
2021/06/01 20:34:09;;;;;;;12.77;7.05;;;;;;;;;;4994109;28;20042;-57
2021/06/01 20:36:51;;;;;;;12.52;7.72;;;;;;;;;;4994137;28;20026;-58
2021/06/01 20:39:24;;;;;;;17.10;8.07;;;;;;;;;;4993513;28;20039;-57
2021/06/01 20:41:53;;;;;;;10.32;7.38;;;;;;;;;;4993941;28;20038;-59
2021/06/01 20:44:21;;;;;;;12.43;7.97;;;;;;;;;;4994085;28;20038;-58
2021/06/01 20:46:48;;;;;;;10.15;6.53;;;;;;;;;;4993923;28;20481;-58
2021/06/01 20:49:18;;;;;;;18.65;6.78;;;;;;;;;;4994068;28;20027;-58
2021/06/01 20:51:45;;;;;;;9.20;6.43;;;;;;;;;;4993353;28;20434;-58
2021/06/01 20:54:13;;;;;;;11.10;7.72;;;;;;;;;;4993902;28;20512;-59
2021/06/01 20:56:40;;;;;;;9.55;7.32;;;;;;;;;;4993924;28;20058;-60
2021/06/01 20:59:07;;;;;;;10.88;7.55;;;;;;;;;;4993815;28;20031;-59
2021/06/01 21:01:34;;;;;;;9.77;6.95;;;;;;;;;;4993868;28;20061;-59
2021/06/01 21:04:01;;;;;;;13.40;6.93;;;;;;;;;;4994467;28;20085;-59
2021/06/01 21:06:29;;;;;;;10.15;7.90;;;;;;;;;;4993681;28;20473;-59
2021/06/01 21:08:57;;;;;;;12.23;6.93;;;;;;;;;;4993653;28;20097;-59
2021/06/01 21:11:24;;;;;;;9.65;6.78;;;;;;;;;;4993714;28;20034;-58
2021/06/01 21:13:51;;;;;;;10.70;6.57;;;;;;;;;;4993640;28;20497;-59
2021/06/01 21:16:18;;;;;;;10.10;5.95;;;;;;;;;;4993570;28;20031;-59
2021/06/01 21:18:45;;;;;;;11.35;5.50;;;;;;;;;;4993534;28;20085;-59
2021/06/01 21:21:12;;;;;;;8.38;6.28;;;;;;;;;;4993544;28;20034;-59
2021/06/01 21:23:39;;;;;;;8.55;6.05;;;;;;;;;;4993568;28;20027;-58
2021/06/01 21:26:06;;;;;;;10.60;6.68;;;;;;;;;;4993465;28;20096;-59
2021/06/01 21:28:34;;;;;;;10.38;5.85;;;;;;;;;;4995080;28;20058;-59
2021/06/01 21:31:01;;;;;;;12.73;6.30;;;;;;;;;;4993479;28;20031;-58
2021/06/01 21:33:37;;;;;;;9.13;6.07;;;;;;;;;;4993411;28;20033;-59
2021/06/01 21:36:05;;;;;;;11.35;5.85;;;;;;;;;;4993387;28;20019;-59
2021/06/01 21:38:37;;;;;;;7.53;5.45;;;;;;;;;;4993248;28;20030;-59
2021/06/01 21:41:04;;;;;;;10.77;5.60;;;;;;;;;;4993230;28;20122;-59
2021/06/01 21:43:37;;;;;;;8.27;5.97;;;;;;;;;;4993290;28;20041;-58
2021/06/01 21:46:10;;;;;;;9.15;5.85;;;;;;;;;;4993245;28;20045;-58
2021/06/01 21:48:46;;;;;;;9.38;5.55;;;;;;;;;;4993059;28;20038;-58
2021/06/01 21:51:14;;;;;;;7.20;5.95;;;;;;;;;;4993276;28;20077;-57
2021/06/01 21:53:42;;;;;;;8.90;5.65;;;;;;;;;;4993192;28;20031;-59
2021/06/01 21:56:10;;;;;;;6.78;4.95;;;;;;;;;;4993302;28;20081;-59
2021/06/01 21:58:39;;;;;;;7.72;5.32;;;;;;;;;;4993256;28;20090;-58
2021/06/01 22:01:06;;;;;;;9.80;5.57;;;;;;;;;;4993232;28;20453;-59
2021/06/01 22:03:34;;;;;;;9.30;5.00;;;;;;;;;;4996500;28;20033;-59